sensor_id;sensor_type;location;lat;lon;timestamp;pressure;altitude;pressure_sealevel;temperature;humidity
35649;BME280;21768;48.562;13.414;2023-07-31T00:02:15;97386.22;;;18.82;59.68
35649;BME280;21768;48.562;13.414;2023-07-31T00:04:41;97380.97;;;18.78;59.06
35649;BME280;21768;48.562;13.414;2023-07-31T00:07:06;97380.06;;;18.76;59.11
35649;BME280;21768;48.562;13.414;2023-07-31T00:09:32;97382.66;;;18.77;59.23
35649;BME280;21768;48.562;13.414;2023-07-31T00:11:58;97381.91;;;18.80;59.09
35649;BME280;21768;48.562;13.414;2023-07-31T00:14:23;97379.28;;;18.78;58.68
35649;BME280;21768;48.562;13.414;2023-07-31T00:16:49;97380.22;;;18.80;59.25
35649;BME280;21768;48.562;13.414;2023-07-31T00:19:14;97385.34;;;18.80;59.04
35649;BME280;21768;48.562;13.414;2023-07-31T00:21:40;97390.34;;;18.77;59.02
35649;BME280;21768;48.562;13.414;2023-07-31T00:24:05;97382.63;;;18.76;59.00
35649;BME280;21768;48.562;13.414;2023-07-31T00:26:31;97379.13;;;18.74;58.91
35649;BME280;21768;48.562;13.414;2023-07-31T00:28:56;97383.38;;;18.73;59.27
35649;BME280;21768;48.562;13.414;2023-07-31T00:31:21;97395.28;;;18.73;59.21
35649;BME280;21768;48.562;13.414;2023-07-31T00:33:47;97391.00;;;18.72;59.44
35649;BME280;21768;48.562;13.414;2023-07-31T00:36:12;97389.16;;;18.67;59.62
35649;BME280;21768;48.562;13.414;2023-07-31T00:38:38;97394.16;;;18.64;60.16
35649;BME280;21768;48.562;13.414;2023-07-31T00:41:03;97403.34;;;18.59;60.20
35649;BME280;21768;48.562;13.414;2023-07-31T00:43:28;97393.84;;;18.55;60.30
35649;BME280;21768;48.562;13.414;2023-07-31T00:45:54;97402.22;;;18.51;60.45
35649;BME280;21768;48.562;13.414;2023-07-31T00:48:19;97394.34;;;18.45;60.64
35649;BME280;21768;48.562;13.414;2023-07-31T00:50:45;97392.53;;;18.43;61.18
35649;BME280;21768;48.562;13.414;2023-07-31T00:53:10;97383.84;;;18.38;61.34
35649;BME280;21768;48.562;13.414;2023-07-31T00:55:36;97386.16;;;18.30;61.69
35649;BME280;21768;48.562;13.414;2023-07-31T00:58:01;97375.72;;;18.24;62.09
35649;BME280;21768;48.562;13.414;2023-07-31T01:00:26;97377.25;;;18.19;62.21
35649;BME280;21768;48.562;13.414;2023-07-31T01:02:52;97373.53;;;18.11;62.29
35649;BME280;21768;48.562;13.414;2023-07-31T01:05:29;97379.22;;;18.02;63.25
35649;BME280;21768;48.562;13.414;2023-07-31T01:11:15;97372.78;;;17.89;63.78
35649;BME280;21768;48.562;13.414;2023-07-31T01:13:43;97370.81;;;17.82;64.18
35649;BME280;21768;48.562;13.414;2023-07-31T01:16:09;97372.38;;;17.77;64.45
35649;BME280;21768;48.562;13.414;2023-07-31T01:18:35;97365.41;;;17.73;64.37
35649;BME280;21768;48.562;13.414;2023-07-31T01:21:22;97366.91;;;17.68;64.58
35649;BME280;21768;48.562;13.414;2023-07-31T01:26:38;97367.31;;;17.56;64.98
35649;BME280;21768;48.562;13.414;2023-07-31T01:29:17;97360.41;;;17.54;65.11
35649;BME280;21768;48.562;13.414;2023-07-31T01:31:48;97353.34;;;17.47;65.60
35649;BME280;21768;48.562;13.414;2023-07-31T01:34:17;97363.41;;;17.44;65.68
35649;BME280;21768;48.562;13.414;2023-07-31T01:36:43;97366.78;;;17.43;65.47
35649;BME280;21768;48.562;13.414;2023-07-31T01:39:09;97360.63;;;17.38;65.64
35649;BME280;21768;48.562;13.414;2023-07-31T01:41:34;97355.34;;;17.33;65.83
35649;BME280;21768;48.562;13.414;2023-07-31T01:44:00;97360.19;;;17.25;65.89
35649;BME280;21768;48.562;13.414;2023-07-31T01:46:25;97363.41;;;17.21;66.09
35649;BME280;21768;48.562;13.414;2023-07-31T01:48:50;97357.22;;;17.15;66.17
35649;BME280;21768;48.562;13.414;2023-07-31T01:51:16;97359.50;;;17.09;66.43
35649;BME280;21768;48.562;13.414;2023-07-31T01:53:41;97364.34;;;17.01;66.65
35649;BME280;21768;48.562;13.414;2023-07-31T01:56:06;97361.66;;;16.98;66.78
35649;BME280;21768;48.562;13.414;2023-07-31T01:58:32;97361.59;;;16.96;66.80
35649;BME280;21768;48.562;13.414;2023-07-31T02:00:57;97366.50;;;16.92;67.08
35649;BME280;21768;48.562;13.414;2023-07-31T02:03:22;97360.28;;;16.85;67.22
35649;BME280;21768;48.562;13.414;2023-07-31T02:05:48;97365.31;;;16.84;67.19
35649;BME280;21768;48.562;13.414;2023-07-31T02:08:15;97361.75;;;16.79;67.39
35649;BME280;21768;48.562;13.414;2023-07-31T02:10:41;97354.78;;;16.75;67.74
35649;BME280;21768;48.562;13.414;2023-07-31T02:13:06;97351.44;;;16.76;67.92
35649;BME280;21768;48.562;13.414;2023-07-31T02:15:32;97350.56;;;16.75;67.79
35649;BME280;21768;48.562;13.414;2023-07-31T02:17:57;97346.34;;;16.76;67.58
35649;BME280;21768;48.562;13.414;2023-07-31T02:20:23;97352.13;;;16.72;67.65
35649;BME280;21768;48.562;13.414;2023-07-31T02:22:48;97357.09;;;16.69;67.77
35649;BME280;21768;48.562;13.414;2023-07-31T02:25:13;97357.09;;;16.69;67.97
35649;BME280;21768;48.562;13.414;2023-07-31T02:27:39;97358.88;;;16.71;67.52
35649;BME280;21768;48.562;13.414;2023-07-31T02:30:05;97353.72;;;16.70;67.28
35649;BME280;21768;48.562;13.414;2023-07-31T02:32:31;97352.66;;;16.64;67.49
35649;BME280;21768;48.562;13.414;2023-07-31T02:34:56;97359.34;;;16.62;67.50
35649;BME280;21768;48.562;13.414;2023-07-31T02:37:22;97354.19;;;16.61;67.54
35649;BME280;21768;48.562;13.414;2023-07-31T02:39:48;97343.84;;;16.56;67.46
35649;BME280;21768;48.562;13.414;2023-07-31T02:42:14;97347.06;;;16.52;67.62
35649;BME280;21768;48.562;13.414;2023-07-31T02:44:40;97335.88;;;16.49;67.40
35649;BME280;21768;48.562;13.414;2023-07-31T02:47:05;97351.16;;;16.49;67.67
35649;BME280;21768;48.562;13.414;2023-07-31T02:49:30;97350.53;;;16.54;67.82
35649;BME280;21768;48.562;13.414;2023-07-31T02:51:56;97347.19;;;16.55;67.59
35649;BME280;21768;48.562;13.414;2023-07-31T02:54:22;97359.78;;;16.52;67.33
35649;BME280;21768;48.562;13.414;2023-07-31T02:56:47;97351.97;;;16.48;67.58
35649;BME280;21768;48.562;13.414;2023-07-31T02:59:13;97355.38;;;16.48;67.70
35649;BME280;21768;48.562;13.414;2023-07-31T03:01:38;97356.31;;;16.50;67.76
35649;BME280;21768;48.562;13.414;2023-07-31T03:04:04;97351.34;;;16.53;67.92
35649;BME280;21768;48.562;13.414;2023-07-31T03:06:29;97346.06;;;16.49;68.10
35649;BME280;21768;48.562;13.414;2023-07-31T03:08:55;97351.91;;;16.46;68.27
35649;BME280;21768;48.562;13.414;2023-07-31T03:11:20;97348.41;;;16.44;68.41
35649;BME280;21768;48.562;13.414;2023-07-31T03:13:45;97356.06;;;16.44;68.58
35649;BME280;21768;48.562;13.414;2023-07-31T03:16:11;97352.63;;;16.44;68.74
35649;BME280;21768;48.562;13.414;2023-07-31T03:18:36;97351.81;;;16.45;68.75
35649;BME280;21768;48.562;13.414;2023-07-31T03:21:01;97352.69;;;16.45;68.18
35649;BME280;21768;48.562;13.414;2023-07-31T03:23:27;97354.38;;;16.45;68.12
35649;BME280;21768;48.562;13.414;2023-07-31T03:26:00;97350.75;;;16.40;68.07
35649;BME280;21768;48.562;13.414;2023-07-31T03:28:26;97351.34;;;16.32;67.92
35649;BME280;21768;48.562;13.414;2023-07-31T03:30:52;97347.78;;;16.29;67.74
35649;BME280;21768;48.562;13.414;2023-07-31T03:33:17;97345.03;;;16.24;68.33
35649;BME280;21768;48.562;13.414;2023-07-31T03:35:43;97348.31;;;16.22;68.49
35649;BME280;21768;48.562;13.414;2023-07-31T03:38:08;97351.69;;;16.21;68.60
35649;BME280;21768;48.562;13.414;2023-07-31T03:40:33;97348.31;;;16.22;68.80
35649;BME280;21768;48.562;13.414;2023-07-31T03:42:59;97340.69;;;16.22;68.99
35649;BME280;21768;48.562;13.414;2023-07-31T03:45:24;97333.06;;;16.22;69.14
35649;BME280;21768;48.562;13.414;2023-07-31T03:47:50;97333.84;;;16.21;69.27
35649;BME280;21768;48.562;13.414;2023-07-31T03:50:16;97336.53;;;16.24;69.41
35649;BME280;21768;48.562;13.414;2023-07-31T03:52:41;97339.94;;;16.24;69.55
35649;BME280;21768;48.562;13.414;2023-07-31T03:55:07;97342.44;;;16.23;69.36
35649;BME280;21768;48.562;13.414;2023-07-31T03:57:32;97339.16;;;16.25;69.48
35649;BME280;21768;48.562;13.414;2023-07-31T03:59:58;97341.88;;;16.30;69.53
35649;BME280;21768;48.562;13.414;2023-07-31T04:02:23;97348.03;;;16.35;69.61
35649;BME280;21768;48.562;13.414;2023-07-31T04:04:49;97350.47;;;16.32;69.44
35649;BME280;21768;48.562;13.414;2023-07-31T04:07:14;97349.53;;;16.30;69.47
35649;BME280;21768;48.562;13.414;2023-07-31T04:09:39;97349.41;;;16.27;69.69
35649;BME280;21768;48.562;13.414;2023-07-31T04:12:05;97349.06;;;16.19;69.81
35649;BME280;21768;48.562;13.414;2023-07-31T04:14:30;97363.53;;;16.20;69.74
35649;BME280;21768;48.562;13.414;2023-07-31T04:16:56;97359.06;;;16.15;69.72
35649;BME280;21768;48.562;13.414;2023-07-31T04:19:21;97357.19;;;16.11;69.94
35649;BME280;21768;48.562;13.414;2023-07-31T04:21:46;97354.63;;;16.11;69.86
35649;BME280;21768;48.562;13.414;2023-07-31T04:24:12;97356.50;;;16.15;69.85
35649;BME280;21768;48.562;13.414;2023-07-31T04:26:37;97360.66;;;16.13;70.11
35649;BME280;21768;48.562;13.414;2023-07-31T04:29:02;97367.50;;;16.14;70.02
35649;BME280;21768;48.562;13.414;2023-07-31T04:31:28;97365.88;;;16.16;70.18
35649;BME280;21768;48.562;13.414;2023-07-31T04:33:53;97362.53;;;16.17;70.06
35649;BME280;21768;48.562;13.414;2023-07-31T04:36:18;97364.41;;;16.21;70.00
35649;BME280;21768;48.562;13.414;2023-07-31T04:38:44;97366.41;;;16.28;70.05
35649;BME280;21768;48.562;13.414;2023-07-31T04:41:09;97366.66;;;16.34;69.91
35649;BME280;21768;48.562;13.414;2023-07-31T04:43:34;97361.00;;;16.41;69.90
35649;BME280;21768;48.562;13.414;2023-07-31T04:46:00;97362.94;;;16.47;69.72
35649;BME280;21768;48.562;13.414;2023-07-31T04:48:26;97357.25;;;16.52;69.77
35649;BME280;21768;48.562;13.414;2023-07-31T04:50:51;97351.84;;;16.65;69.69
35649;BME280;21768;48.562;13.414;2023-07-31T04:53:16;97353.31;;;16.80;69.34
35649;BME280;21768;48.562;13.414;2023-07-31T04:55:42;97353.81;;;16.93;69.35
35649;BME280;21768;48.562;13.414;2023-07-31T04:58:07;97356.88;;;17.06;69.23
35649;BME280;21768;48.562;13.414;2023-07-31T05:00:32;97354.59;;;17.13;68.70
35649;BME280;21768;48.562;13.414;2023-07-31T05:02:58;97356.66;;;17.22;68.46
35649;BME280;21768;48.562;13.414;2023-07-31T05:05:23;97351.19;;;17.35;68.05
35649;BME280;21768;48.562;13.414;2023-07-31T05:07:49;97339.72;;;17.46;68.02
35649;BME280;21768;48.562;13.414;2023-07-31T05:10:14;97343.56;;;17.59;68.12
35649;BME280;21768;48.562;13.414;2023-07-31T05:12:39;97344.75;;;17.67;67.71
35649;BME280;21768;48.562;13.414;2023-07-31T05:15:05;97345.78;;;17.72;67.68
35649;BME280;21768;48.562;13.414;2023-07-31T05:17:31;97342.03;;;17.86;67.74
35649;BME280;21768;48.562;13.414;2023-07-31T05:19:56;97341.50;;;17.95;67.27
35649;BME280;21768;48.562;13.414;2023-07-31T05:22:21;97340.84;;;18.00;66.95
35649;BME280;21768;48.562;13.414;2023-07-31T05:24:47;97344.44;;;18.06;67.15
35649;BME280;21768;48.562;13.414;2023-07-31T05:27:12;97337.13;;;18.16;67.31
35649;BME280;21768;48.562;13.414;2023-07-31T05:29:40;97342.72;;;18.30;67.03
35649;BME280;21768;48.562;13.414;2023-07-31T05:32:06;97340.41;;;18.38;66.86
35649;BME280;21768;48.562;13.414;2023-07-31T05:34:31;97333.84;;;18.44;66.47
35649;BME280;21768;48.562;13.414;2023-07-31T05:36:57;97334.97;;;18.52;66.28
35649;BME280;21768;48.562;13.414;2023-07-31T05:39:22;97336.97;;;18.61;66.04
35649;BME280;21768;48.562;13.414;2023-07-31T05:41:47;97339.56;;;18.62;66.01
35649;BME280;21768;48.562;13.414;2023-07-31T05:44:13;97333.13;;;18.74;66.12
35649;BME280;21768;48.562;13.414;2023-07-31T05:46:38;97330.78;;;18.81;65.55
35649;BME280;21768;48.562;13.414;2023-07-31T05:49:03;97337.13;;;18.92;65.43
35649;BME280;21768;48.562;13.414;2023-07-31T05:51:29;97342.50;;;19.00;65.80
35649;BME280;21768;48.562;13.414;2023-07-31T05:53:54;97340.09;;;19.06;65.38
35649;BME280;21768;48.562;13.414;2023-07-31T05:56:20;97336.97;;;19.15;64.92
35649;BME280;21768;48.562;13.414;2023-07-31T05:58:45;97343.19;;;19.23;64.30
35649;BME280;21768;48.562;13.414;2023-07-31T06:01:11;97334.88;;;19.30;64.38
35649;BME280;21768;48.562;13.414;2023-07-31T06:03:36;97335.09;;;19.37;64.18
35649;BME280;21768;48.562;13.414;2023-07-31T06:06:01;97338.75;;;19.46;63.78
35649;BME280;21768;48.562;13.414;2023-07-31T06:08:27;97336.50;;;19.56;63.25
35649;BME280;21768;48.562;13.414;2023-07-31T06:10:52;97332.44;;;19.63;62.83
35649;BME280;21768;48.562;13.414;2023-07-31T06:13:18;97333.59;;;19.73;62.55
35649;BME280;21768;48.562;13.414;2023-07-31T06:15:43;97333.00;;;19.83;61.48
35649;BME280;21768;48.562;13.414;2023-07-31T06:18:08;97334.09;;;19.91;60.97
35649;BME280;21768;48.562;13.414;2023-07-31T06:20:34;97325.88;;;20.02;60.72
35649;BME280;21768;48.562;13.414;2023-07-31T06:23:00;97324.38;;;20.11;61.03
35649;BME280;21768;48.562;13.414;2023-07-31T06:25:25;97317.00;;;20.23;60.19
35649;BME280;21768;48.562;13.414;2023-07-31T06:27:50;97318.88;;;20.30;58.86
35649;BME280;21768;48.562;13.414;2023-07-31T06:30:16;97314.78;;;20.36;56.42
35649;BME280;21768;48.562;13.414;2023-07-31T06:32:42;97319.31;;;20.45;56.78
35649;BME280;21768;48.562;13.414;2023-07-31T06:35:08;97325.25;;;20.43;54.66
35649;BME280;21768;48.562;13.414;2023-07-31T06:37:33;97323.53;;;20.43;54.09
35649;BME280;21768;48.562;13.414;2023-07-31T06:39:58;97328.94;;;20.54;53.58
35649;BME280;21768;48.562;13.414;2023-07-31T06:42:24;97319.78;;;20.63;53.66
35649;BME280;21768;48.562;13.414;2023-07-31T06:44:49;97320.88;;;20.73;52.14
35649;BME280;21768;48.562;13.414;2023-07-31T06:47:15;97321.94;;;20.83;53.16
35649;BME280;21768;48.562;13.414;2023-07-31T06:49:40;97315.59;;;21.03;52.76
35649;BME280;21768;48.562;13.414;2023-07-31T06:52:06;97324.66;;;21.25;54.44
35649;BME280;21768;48.562;13.414;2023-07-31T06:54:31;97319.94;;;21.45;51.54
35649;BME280;21768;48.562;13.414;2023-07-31T06:56:57;97314.19;;;21.56;50.62
35649;BME280;21768;48.562;13.414;2023-07-31T06:59:22;97321.75;;;21.49;50.43
35649;BME280;21768;48.562;13.414;2023-07-31T07:01:47;97308.78;;;21.43;51.50
35649;BME280;21768;48.562;13.414;2023-07-31T07:04:14;97314.75;;;21.42;51.31
35649;BME280;21768;48.562;13.414;2023-07-31T07:06:39;97310.53;;;21.45;53.03
35649;BME280;21768;48.562;13.414;2023-07-31T07:09:04;97317.59;;;21.55;53.65
35649;BME280;21768;48.562;13.414;2023-07-31T07:11:30;97313.50;;;21.65;53.13
35649;BME280;21768;48.562;13.414;2023-07-31T07:13:56;97320.63;;;21.78;54.59
35649;BME280;21768;48.562;13.414;2023-07-31T07:16:21;97315.78;;;21.93;51.03
35649;BME280;21768;48.562;13.414;2023-07-31T07:18:46;97315.97;;;22.02;50.64
35649;BME280;21768;48.562;13.414;2023-07-31T07:21:12;97318.00;;;22.19;51.93
35649;BME280;21768;48.562;13.414;2023-07-31T07:23:42;97312.28;;;22.35;50.07
35649;BME280;21768;48.562;13.414;2023-07-31T07:26:07;97306.53;;;22.48;49.85
35649;BME280;21768;48.562;13.414;2023-07-31T07:28:32;97305.81;;;22.58;50.05
35649;BME280;21768;48.562;13.414;2023-07-31T07:30:58;97307.69;;;22.67;49.35
35649;BME280;21768;48.562;13.414;2023-07-31T07:33:23;97300.91;;;22.72;50.42
35649;BME280;21768;48.562;13.414;2023-07-31T07:35:49;97291.69;;;22.85;50.54
35649;BME280;21768;48.562;13.414;2023-07-31T07:38:14;97292.72;;;22.94;50.09
35649;BME280;21768;48.562;13.414;2023-07-31T07:40:40;97295.47;;;23.08;50.85
35649;BME280;21768;48.562;13.414;2023-07-31T07:43:06;97295.63;;;23.17;50.92
35649;BME280;21768;48.562;13.414;2023-07-31T07:45:31;97297.47;;;23.26;49.40
35649;BME280;21768;48.562;13.414;2023-07-31T07:47:57;97299.06;;;23.19;48.80
35649;BME280;21768;48.562;13.414;2023-07-31T07:50:23;97305.81;;;23.11;48.58
35649;BME280;21768;48.562;13.414;2023-07-31T07:52:48;97300.69;;;23.13;48.93
35649;BME280;21768;48.562;13.414;2023-07-31T07:55:13;97297.31;;;23.17;49.02
35649;BME280;21768;48.562;13.414;2023-07-31T07:57:39;97297.28;;;23.15;47.80
35649;BME280;21768;48.562;13.414;2023-07-31T08:00:05;97290.63;;;23.29;49.54
35649;BME280;21768;48.562;13.414;2023-07-31T08:02:31;97284.91;;;23.50;50.13
35649;BME280;21768;48.562;13.414;2023-07-31T08:04:56;97275.53;;;23.57;47.58
35649;BME280;21768;48.562;13.414;2023-07-31T08:07:21;97279.84;;;23.58;47.22
35649;BME280;21768;48.562;13.414;2023-07-31T08:09:47;97283.31;;;23.60;46.66
35649;BME280;21768;48.562;13.414;2023-07-31T08:12:12;97279.69;;;23.46;46.54
35649;BME280;21768;48.562;13.414;2023-07-31T08:14:37;97277.91;;;23.41;47.42
35649;BME280;21768;48.562;13.414;2023-07-31T08:17:03;97277.00;;;23.38;48.33
35649;BME280;21768;48.562;13.414;2023-07-31T08:19:28;97276.13;;;23.37;46.65
35649;BME280;21768;48.562;13.414;2023-07-31T08:21:54;97280.63;;;23.51;47.00
35649;BME280;21768;48.562;13.414;2023-07-31T08:24:19;97265.16;;;23.51;46.32
35649;BME280;21768;48.562;13.414;2023-07-31T08:26:45;97273.72;;;23.50;46.90
35649;BME280;21768;48.562;13.414;2023-07-31T08:29:10;97268.63;;;23.53;47.35
35649;BME280;21768;48.562;13.414;2023-07-31T08:31:36;97277.22;;;23.55;48.60
35649;BME280;21768;48.562;13.414;2023-07-31T08:34:01;97273.72;;;23.50;46.89
35649;BME280;21768;48.562;13.414;2023-07-31T08:36:26;97269.38;;;23.46;46.37
35649;BME280;21768;48.562;13.414;2023-07-31T08:38:52;97272.00;;;23.52;46.16
35649;BME280;21768;48.562;13.414;2023-07-31T08:41:17;97267.84;;;23.58;46.48
35649;BME280;21768;48.562;13.414;2023-07-31T08:43:47;97260.06;;;23.55;46.44
35649;BME280;21768;48.562;13.414;2023-07-31T08:46:13;97264.34;;;23.55;47.86
35649;BME280;21768;48.562;13.414;2023-07-31T08:48:41;97263.47;;;23.54;46.52
35649;BME280;21768;48.562;13.414;2023-07-31T08:51:06;97266.84;;;23.52;46.95
35649;BME280;21768;48.562;13.414;2023-07-31T08:53:32;97265.19;;;23.54;47.26
35649;BME280;21768;48.562;13.414;2023-07-31T08:55:58;97269.53;;;23.58;49.06
35649;BME280;21768;48.562;13.414;2023-07-31T08:58:25;97267.06;;;23.64;48.57
35649;BME280;21768;48.562;13.414;2023-07-31T09:00:53;97266.31;;;23.72;48.60
35649;BME280;21768;48.562;13.414;2023-07-31T09:03:21;97269.75;;;23.78;49.57
35649;BME280;21768;48.562;13.414;2023-07-31T09:05:48;97265.59;;;23.87;49.25
35649;BME280;21768;48.562;13.414;2023-07-31T09:08:18;97265.69;;;23.95;49.00
35649;BME280;21768;48.562;13.414;2023-07-31T09:10:45;97260.63;;;24.07;46.20
35649;BME280;21768;48.562;13.414;2023-07-31T09:13:12;97261.59;;;24.17;44.54
35649;BME280;21768;48.562;13.414;2023-07-31T09:15:39;97253.06;;;24.24;43.37
35649;BME280;21768;48.562;13.414;2023-07-31T09:18:05;97247.41;;;24.64;44.89
35649;BME280;21768;48.562;13.414;2023-07-31T09:20:31;97244.97;;;24.89;43.16
35649;BME280;21768;48.562;13.414;2023-07-31T09:23:08;97246.03;;;25.15;42.21
35649;BME280;21768;48.562;13.414;2023-07-31T09:25:34;97244.44;;;25.41;42.62
35649;BME280;21768;48.562;13.414;2023-07-31T09:28:05;97239.44;;;25.99;40.22
35649;BME280;21768;48.562;13.414;2023-07-31T09:30:31;97238.63;;;26.16;39.74
35649;BME280;21768;48.562;13.414;2023-07-31T09:33:04;97238.63;;;26.16;39.43
35649;BME280;21768;48.562;13.414;2023-07-31T09:35:35;97232.53;;;26.00;40.20
35649;BME280;21768;48.562;13.414;2023-07-31T09:38:08;97235.09;;;25.80;40.56
35649;BME280;21768;48.562;13.414;2023-07-31T09:40:36;97238.53;;;25.67;42.18
35649;BME280;21768;48.562;13.414;2023-07-31T09:43:03;97223.78;;;25.57;40.30
35649;BME280;21768;48.562;13.414;2023-07-31T09:45:34;97240.97;;;25.42;40.25
35649;BME280;21768;48.562;13.414;2023-07-31T09:47:59;97220.22;;;25.18;40.53
35649;BME280;21768;48.562;13.414;2023-07-31T09:50:25;97215.06;;;25.18;40.92
35649;BME280;21768;48.562;13.414;2023-07-31T09:52:51;97214.13;;;25.07;41.50
35649;BME280;21768;48.562;13.414;2023-07-31T09:55:19;97215.94;;;25.23;40.65
35649;BME280;21768;48.562;13.414;2023-07-31T09:57:47;97216.84;;;25.37;40.57
35649;BME280;21768;48.562;13.414;2023-07-31T10:00:14;97211.72;;;25.56;40.25
35649;BME280;21768;48.562;13.414;2023-07-31T10:02:41;97200.63;;;25.81;40.76
35649;BME280;21768;48.562;13.414;2023-07-31T10:05:07;97205.81;;;26.04;40.14
35649;BME280;21768;48.562;13.414;2023-07-31T10:07:38;97193.81;;;26.44;39.82
35649;BME280;21768;48.562;13.414;2023-07-31T10:10:08;97186.00;;;26.65;37.84
35649;BME280;21768;48.562;13.414;2023-07-31T10:12:35;97188.59;;;26.61;38.71
35649;BME280;21768;48.562;13.414;2023-07-31T10:15:01;97188.53;;;26.87;40.18
35649;BME280;21768;48.562;13.414;2023-07-31T10:17:28;97179.06;;;26.83;38.97
35649;BME280;21768;48.562;13.414;2023-07-31T10:19:55;97173.06;;;26.61;40.50
35649;BME280;21768;48.562;13.414;2023-07-31T10:22:21;97178.28;;;26.47;38.59
35649;BME280;21768;48.562;13.414;2023-07-31T10:24:48;97172.22;;;26.51;40.02
35649;BME280;21768;48.562;13.414;2023-07-31T10:27:14;97169.59;;;26.68;37.97
35649;BME280;21768;48.562;13.414;2023-07-31T10:29:41;97172.19;;;26.63;37.81
35649;BME280;21768;48.562;13.414;2023-07-31T10:32:09;97159.25;;;26.63;38.80
35649;BME280;21768;48.562;13.414;2023-07-31T10:34:35;97159.22;;;26.74;39.30
35649;BME280;21768;48.562;13.414;2023-07-31T10:42:49;97148.03;;;26.55;37.90
35649;BME280;21768;48.562;13.414;2023-07-31T10:45:23;97147.22;;;26.38;39.46
35649;BME280;21768;48.562;13.414;2023-07-31T10:47:58;97143.78;;;26.19;39.74
35649;BME280;21768;48.562;13.414;2023-07-31T10:50:24;97140.31;;;26.41;40.19
35649;BME280;21768;48.562;13.414;2023-07-31T10:52:54;97136.84;;;26.53;39.60
35649;BME280;21768;48.562;13.414;2023-07-31T10:55:28;97130.84;;;26.45;39.92
35649;BME280;21768;48.562;13.414;2023-07-31T10:57:55;97124.81;;;26.32;39.52
35649;BME280;21768;48.562;13.414;2023-07-31T11:08:38;97107.03;;;27.65;38.40
35649;BME280;21768;48.562;13.414;2023-07-31T11:11:08;97104.88;;;28.19;36.44
35649;BME280;21768;48.562;13.414;2023-07-31T11:13:40;97105.34;;;30.42;33.36
35649;BME280;21768;48.562;13.414;2023-07-31T11:16:06;97100.75;;;33.70;29.22
35649;BME280;21768;48.562;13.414;2023-07-31T11:18:32;97102.34;;;34.28;27.36
35649;BME280;21768;48.562;13.414;2023-07-31T11:20:58;97101.50;;;32.54;30.75
35649;BME280;21768;48.562;13.414;2023-07-31T11:23:23;97107.75;;;31.40;31.53
35649;BME280;21768;48.562;13.414;2023-07-31T11:25:50;97108.19;;;30.28;33.19
35649;BME280;21768;48.562;13.414;2023-07-31T11:28:16;97109.56;;;29.41;34.80
35649;BME280;21768;48.562;13.414;2023-07-31T11:30:43;97106.59;;;29.00;36.03
35649;BME280;21768;48.562;13.414;2023-07-31T11:33:13;97093.03;;;28.73;35.82
35649;BME280;21768;48.562;13.414;2023-07-31T11:35:46;97087.69;;;28.04;36.69
35649;BME280;21768;48.562;13.414;2023-07-31T11:38:22;97090.66;;;27.53;36.95
35649;BME280;21768;48.562;13.414;2023-07-31T11:40:51;97093.50;;;27.16;37.30
35649;BME280;21768;48.562;13.414;2023-07-31T11:43:18;97089.22;;;27.01;37.18
35649;BME280;21768;48.562;13.414;2023-07-31T11:45:56;97091.88;;;26.83;38.27
35649;BME280;21768;48.562;13.414;2023-07-31T11:50:50;97075.94;;;27.59;38.46
35649;BME280;21768;48.562;13.414;2023-07-31T11:53:17;97072.25;;;27.91;35.17
35649;BME280;21768;48.562;13.414;2023-07-31T11:55:44;97066.09;;;27.99;36.39
35649;BME280;21768;48.562;13.414;2023-07-31T11:58:11;97059.97;;;28.09;36.93
35649;BME280;21768;48.562;13.414;2023-07-31T12:00:36;97059.81;;;28.28;37.09
35649;BME280;21768;48.562;13.414;2023-07-31T12:03:02;97066.75;;;28.26;37.56
35649;BME280;21768;48.562;13.414;2023-07-31T12:05:28;97050.03;;;28.50;39.07
35649;BME280;21768;48.562;13.414;2023-07-31T12:07:54;97049.75;;;28.72;36.20
35649;BME280;21768;48.562;13.414;2023-07-31T12:10:27;97047.97;;;28.81;36.14
35649;BME280;21768;48.562;13.414;2023-07-31T12:12:58;97038.66;;;28.61;35.73
35649;BME280;21768;48.562;13.414;2023-07-31T12:15:44;97040.50;;;28.50;36.74
35649;BME280;21768;48.562;13.414;2023-07-31T12:18:11;97033.75;;;28.38;36.93
35649;BME280;21768;48.562;13.414;2023-07-31T12:20:43;97029.56;;;28.24;35.90
35649;BME280;21768;48.562;13.414;2023-07-31T12:23:14;97035.72;;;28.12;35.63
35649;BME280;21768;48.562;13.414;2023-07-31T12:25:40;97034.09;;;27.99;35.70
35649;BME280;21768;48.562;13.414;2023-07-31T12:28:07;97024.47;;;28.11;35.49
35649;BME280;21768;48.562;13.414;2023-07-31T12:30:37;97024.50;;;28.08;35.43
35649;BME280;21768;48.562;13.414;2023-07-31T12:33:04;97016.03;;;27.91;35.52
35649;BME280;21768;48.562;13.414;2023-07-31T12:35:38;97008.41;;;27.74;35.97
35649;BME280;21768;48.562;13.414;2023-07-31T12:38:05;96999.72;;;27.78;36.25
35649;BME280;21768;48.562;13.414;2023-07-31T12:40:30;96997.03;;;27.89;36.53
35649;BME280;21768;48.562;13.414;2023-07-31T12:42:56;96994.25;;;28.06;36.87
35649;BME280;21768;48.562;13.414;2023-07-31T12:45:21;96999.50;;;28.00;36.54
35649;BME280;21768;48.562;13.414;2023-07-31T12:47:48;96993.28;;;28.21;35.96
35649;BME280;21768;48.562;13.414;2023-07-31T12:50:14;96990.28;;;28.53;34.56
35649;BME280;21768;48.562;13.414;2023-07-31T12:52:39;96986.78;;;28.57;34.67
35649;BME280;21768;48.562;13.414;2023-07-31T12:55:05;96979.81;;;28.60;35.26
35649;BME280;21768;48.562;13.414;2023-07-31T12:57:30;96973.50;;;28.79;34.58
35649;BME280;21768;48.562;13.414;2023-07-31T12:59:56;96970.78;;;28.92;34.31
35649;BME280;21768;48.562;13.414;2023-07-31T13:02:21;96963.84;;;28.92;34.76
35649;BME280;21768;48.562;13.414;2023-07-31T13:04:46;96967.97;;;29.04;33.10
35649;BME280;21768;48.562;13.414;2023-07-31T13:07:12;96962.94;;;28.95;32.76
35649;BME280;21768;48.562;13.414;2023-07-31T13:09:37;96956.78;;;28.99;32.51